sensor_id;sensor_type;location;lat;lon;timestamp;P1;durP1;ratioP1;P2;durP2;ratioP2
21820;SDS011;11073;48.586;12.066;2023-03-19T00:02:40;14.05;;;8.95;;
21820;SDS011;11073;48.586;12.066;2023-03-19T00:05:37;16.15;;;9.48;;
21820;SDS011;11073;48.586;12.066;2023-03-19T00:08:26;14.27;;;8.57;;
21820;SDS011;11073;48.586;12.066;2023-03-19T00:11:16;13.50;;;8.93;;
21820;SDS011;11073;48.586;12.066;2023-03-19T00:14:06;13.68;;;9.00;;
21820;SDS011;11073;48.586;12.066;2023-03-19T00:16:55;16.13;;;10.02;;
21820;SDS011;11073;48.586;12.066;2023-03-19T00:19:44;18.15;;;10.38;;
21820;SDS011;11073;48.586;12.066;2023-03-19T00:22:33;14.68;;;9.13;;
21820;SDS011;11073;48.586;12.066;2023-03-19T00:25:23;13.38;;;8.95;;
21820;SDS011;11073;48.586;12.066;2023-03-19T00:28:14;15.02;;;9.45;;
21820;SDS011;11073;48.586;12.066;2023-03-19T00:31:07;17.45;;;10.00;;
21820;SDS011;11073;48.586;12.066;2023-03-19T00:33:58;18.02;;;9.95;;
21820;SDS011;11073;48.586;12.066;2023-03-19T00:36:47;17.42;;;10.10;;
21820;SDS011;11073;48.586;12.066;2023-03-19T00:39:37;13.30;;;8.90;;
21820;SDS011;11073;48.586;12.066;2023-03-19T00:42:27;15.68;;;10.38;;
21820;SDS011;11073;48.586;12.066;2023-03-19T00:45:18;16.52;;;9.88;;
21820;SDS011;11073;48.586;12.066;2023-03-19T00:48:07;16.13;;;9.40;;
21820;SDS011;11073;48.586;12.066;2023-03-19T00:51:00;13.65;;;9.57;;
21820;SDS011;11073;48.586;12.066;2023-03-19T00:53:51;15.50;;;8.60;;
21820;SDS011;11073;48.586;12.066;2023-03-19T00:56:41;16.30;;;9.27;;
21820;SDS011;11073;48.586;12.066;2023-03-19T00:59:30;16.00;;;9.68;;
21820;SDS011;11073;48.586;12.066;2023-03-19T01:02:20;15.30;;;10.13;;
21820;SDS011;11073;48.586;12.066;2023-03-19T01:05:09;18.30;;;9.13;;
21820;SDS011;11073;48.586;12.066;2023-03-19T01:07:59;14.57;;;9.40;;
21820;SDS011;11073;48.586;12.066;2023-03-19T01:10:49;16.40;;;9.85;;
21820;SDS011;11073;48.586;12.066;2023-03-19T01:13:38;14.73;;;10.15;;
21820;SDS011;11073;48.586;12.066;2023-03-19T01:16:28;13.43;;;9.43;;
21820;SDS011;11073;48.586;12.066;2023-03-19T01:19:19;15.77;;;9.32;;
21820;SDS011;11073;48.586;12.066;2023-03-19T01:22:08;14.95;;;9.73;;
21820;SDS011;11073;48.586;12.066;2023-03-19T01:25:01;15.27;;;9.13;;
21820;SDS011;11073;48.586;12.066;2023-03-19T01:27:50;15.77;;;10.00;;
21820;SDS011;11073;48.586;12.066;2023-03-19T01:30:40;16.98;;;10.35;;
21820;SDS011;11073;48.586;12.066;2023-03-19T01:33:50;18.73;;;11.18;;
21820;SDS011;11073;48.586;12.066;2023-03-19T01:37:01;17.25;;;10.80;;
21820;SDS011;11073;48.586;12.066;2023-03-19T01:39:52;18.15;;;11.38;;
21820;SDS011;11073;48.586;12.066;2023-03-19T01:42:51;19.27;;;11.00;;
21820;SDS011;11073;48.586;12.066;2023-03-19T01:46:03;15.20;;;9.95;;
21820;SDS011;11073;48.586;12.066;2023-03-19T01:49:15;15.40;;;10.30;;
21820;SDS011;11073;48.586;12.066;2023-03-19T01:52:14;17.95;;;10.18;;
21820;SDS011;11073;48.586;12.066;2023-03-19T01:55:29;16.23;;;10.05;;
21820;SDS011;11073;48.586;12.066;2023-03-19T01:58:28;15.38;;;10.02;;
21820;SDS011;11073;48.586;12.066;2023-03-19T02:01:32;19.33;;;10.32;;
21820;SDS011;11073;48.586;12.066;2023-03-19T02:04:26;16.25;;;10.90;;
21820;SDS011;11073;48.586;12.066;2023-03-19T02:07:18;21.80;;;11.38;;
21820;SDS011;11073;48.586;12.066;2023-03-19T02:10:10;17.58;;;11.02;;
21820;SDS011;11073;48.586;12.066;2023-03-19T02:13:02;18.35;;;11.15;;
21820;SDS011;11073;48.586;12.066;2023-03-19T02:15:51;19.33;;;11.30;;
21820;SDS011;11073;48.586;12.066;2023-03-19T02:18:40;15.30;;;10.43;;
21820;SDS011;11073;48.586;12.066;2023-03-19T02:21:30;15.93;;;10.25;;
21820;SDS011;11073;48.586;12.066;2023-03-19T02:24:23;18.80;;;10.77;;
21820;SDS011;11073;48.586;12.066;2023-03-19T02:27:23;16.55;;;11.00;;
21820;SDS011;11073;48.586;12.066;2023-03-19T02:30:17;15.02;;;9.95;;
21820;SDS011;11073;48.586;12.066;2023-03-19T02:33:10;16.17;;;10.10;;
21820;SDS011;11073;48.586;12.066;2023-03-19T02:36:00;19.00;;;12.40;;
21820;SDS011;11073;48.586;12.066;2023-03-19T02:38:50;16.35;;;10.57;;
21820;SDS011;11073;48.586;12.066;2023-03-19T02:41:41;17.88;;;11.40;;
21820;SDS011;11073;48.586;12.066;2023-03-19T02:44:32;15.93;;;10.55;;
21820;SDS011;11073;48.586;12.066;2023-03-19T02:47:22;16.13;;;10.77;;
21820;SDS011;11073;48.586;12.066;2023-03-19T02:50:11;15.82;;;10.25;;
21820;SDS011;11073;48.586;12.066;2023-03-19T02:53:02;15.35;;;10.00;;
21820;SDS011;11073;48.586;12.066;2023-03-19T02:55:51;15.27;;;9.40;;
21820;SDS011;11073;48.586;12.066;2023-03-19T02:58:40;16.20;;;10.88;;
21820;SDS011;11073;48.586;12.066;2023-03-19T03:01:30;17.30;;;9.93;;
21820;SDS011;11073;48.586;12.066;2023-03-19T03:04:20;15.82;;;10.88;;
21820;SDS011;11073;48.586;12.066;2023-03-19T03:07:09;18.13;;;12.00;;
21820;SDS011;11073;48.586;12.066;2023-03-19T03:09:59;19.08;;;11.63;;
21820;SDS011;11073;48.586;12.066;2023-03-19T03:12:48;17.73;;;10.77;;
21820;SDS011;11073;48.586;12.066;2023-03-19T03:15:38;17.38;;;10.82;;
21820;SDS011;11073;48.586;12.066;2023-03-19T03:18:29;19.10;;;11.05;;
21820;SDS011;11073;48.586;12.066;2023-03-19T03:21:19;17.50;;;12.05;;
21820;SDS011;11073;48.586;12.066;2023-03-19T03:24:09;20.35;;;13.10;;
21820;SDS011;11073;48.586;12.066;2023-03-19T03:26:58;17.10;;;11.55;;
21820;SDS011;11073;48.586;12.066;2023-03-19T03:29:48;18.73;;;12.15;;
21820;SDS011;11073;48.586;12.066;2023-03-19T03:32:38;14.40;;;9.80;;
21820;SDS011;11073;48.586;12.066;2023-03-19T03:35:29;15.68;;;10.88;;
21820;SDS011;11073;48.586;12.066;2023-03-19T03:38:19;19.17;;;10.85;;
21820;SDS011;11073;48.586;12.066;2023-03-19T03:41:10;14.63;;;10.10;;
21820;SDS011;11073;48.586;12.066;2023-03-19T03:43:59;16.33;;;9.95;;
21820;SDS011;11073;48.586;12.066;2023-03-19T03:46:51;16.42;;;10.60;;
21820;SDS011;11073;48.586;12.066;2023-03-19T03:49:41;16.17;;;10.30;;
21820;SDS011;11073;48.586;12.066;2023-03-19T03:52:33;21.23;;;11.27;;
21820;SDS011;11073;48.586;12.066;2023-03-19T03:55:22;18.25;;;10.75;;
21820;SDS011;11073;48.586;12.066;2023-03-19T03:58:12;17.98;;;11.93;;
21820;SDS011;11073;48.586;12.066;2023-03-19T04:01:01;22.92;;;11.30;;
21820;SDS011;11073;48.586;12.066;2023-03-19T04:03:51;17.48;;;11.75;;
21820;SDS011;11073;48.586;12.066;2023-03-19T04:06:41;20.95;;;10.98;;
21820;SDS011;11073;48.586;12.066;2023-03-19T04:09:52;15.63;;;9.98;;
21820;SDS011;11073;48.586;12.066;2023-03-19T04:12:41;16.70;;;10.15;;
21820;SDS011;11073;48.586;12.066;2023-03-19T04:15:32;14.57;;;9.85;;
21820;SDS011;11073;48.586;12.066;2023-03-19T04:18:22;16.92;;;11.00;;
21820;SDS011;11073;48.586;12.066;2023-03-19T04:21:12;17.63;;;11.23;;
21820;SDS011;11073;48.586;12.066;2023-03-19T04:24:04;18.90;;;10.88;;
21820;SDS011;11073;48.586;12.066;2023-03-19T04:26:54;18.58;;;11.02;;
21820;SDS011;11073;48.586;12.066;2023-03-19T04:29:44;18.38;;;10.98;;
21820;SDS011;11073;48.586;12.066;2023-03-19T04:32:36;17.20;;;10.98;;
21820;SDS011;11073;48.586;12.066;2023-03-19T04:35:25;15.75;;;10.13;;
21820;SDS011;11073;48.586;12.066;2023-03-19T04:38:15;16.52;;;10.30;;
21820;SDS011;11073;48.586;12.066;2023-03-19T04:41:04;19.83;;;11.63;;
21820;SDS011;11073;48.586;12.066;2023-03-19T04:43:58;15.00;;;10.27;;
21820;SDS011;11073;48.586;12.066;2023-03-19T04:46:48;16.90;;;10.52;;
21820;SDS011;11073;48.586;12.066;2023-03-19T04:49:39;16.42;;;11.05;;
21820;SDS011;11073;48.586;12.066;2023-03-19T04:52:29;17.40;;;10.13;;
21820;SDS011;11073;48.586;12.066;2023-03-19T04:55:20;14.98;;;9.95;;
21820;SDS011;11073;48.586;12.066;2023-03-19T04:58:24;14.88;;;10.02;;
21820;SDS011;11073;48.586;12.066;2023-03-19T05:01:20;14.43;;;9.38;;
21820;SDS011;11073;48.586;12.066;2023-03-19T05:04:26;16.60;;;10.02;;
21820;SDS011;11073;48.586;12.066;2023-03-19T05:07:20;16.80;;;10.52;;
21820;SDS011;11073;48.586;12.066;2023-03-19T05:10:11;15.90;;;9.60;;
21820;SDS011;11073;48.586;12.066;2023-03-19T05:13:00;18.45;;;10.50;;
21820;SDS011;11073;48.586;12.066;2023-03-19T05:15:51;18.02;;;10.55;;
21820;SDS011;11073;48.586;12.066;2023-03-19T05:18:42;18.45;;;10.93;;
21820;SDS011;11073;48.586;12.066;2023-03-19T05:21:32;16.63;;;9.95;;
21820;SDS011;11073;48.586;12.066;2023-03-19T05:24:21;14.45;;;9.88;;
21820;SDS011;11073;48.586;12.066;2023-03-19T05:27:11;16.13;;;10.10;;
21820;SDS011;11073;48.586;12.066;2023-03-19T05:30:06;15.85;;;10.10;;
21820;SDS011;11073;48.586;12.066;2023-03-19T05:32:57;13.50;;;9.00;;
21820;SDS011;11073;48.586;12.066;2023-03-19T05:35:55;15.57;;;9.15;;
21820;SDS011;11073;48.586;12.066;2023-03-19T05:38:53;15.77;;;10.02;;
21820;SDS011;11073;48.586;12.066;2023-03-19T05:41:51;15.70;;;9.60;;
21820;SDS011;11073;48.586;12.066;2023-03-19T05:44:46;15.07;;;9.75;;
21820;SDS011;11073;48.586;12.066;2023-03-19T05:47:39;19.10;;;10.20;;
21820;SDS011;11073;48.586;12.066;2023-03-19T05:50:28;15.20;;;10.10;;
21820;SDS011;11073;48.586;12.066;2023-03-19T05:53:38;20.38;;;11.85;;
21820;SDS011;11073;48.586;12.066;2023-03-19T05:56:46;19.00;;;11.63;;
21820;SDS011;11073;48.586;12.066;2023-03-19T06:00:01;15.65;;;11.05;;
21820;SDS011;11073;48.586;12.066;2023-03-19T06:02:53;17.33;;;11.35;;
21820;SDS011;11073;48.586;12.066;2023-03-19T06:06:14;17.45;;;10.55;;
21820;SDS011;11073;48.586;12.066;2023-03-19T06:09:06;14.27;;;10.15;;
21820;SDS011;11073;48.586;12.066;2023-03-19T06:11:59;16.70;;;10.27;;
21820;SDS011;11073;48.586;12.066;2023-03-19T06:15:19;16.23;;;10.32;;
21820;SDS011;11073;48.586;12.066;2023-03-19T06:18:08;16.83;;;11.07;;
21820;SDS011;11073;48.586;12.066;2023-03-19T06:20:58;15.45;;;10.13;;
21820;SDS011;11073;48.586;12.066;2023-03-19T06:23:47;16.95;;;11.73;;
21820;SDS011;11073;48.586;12.066;2023-03-19T06:26:42;17.00;;;10.85;;
21820;SDS011;11073;48.586;12.066;2023-03-19T06:29:34;18.17;;;11.20;;
21820;SDS011;11073;48.586;12.066;2023-03-19T06:32:35;15.43;;;10.77;;
21820;SDS011;11073;48.586;12.066;2023-03-19T06:35:29;20.13;;;12.02;;
21820;SDS011;11073;48.586;12.066;2023-03-19T06:38:18;17.88;;;11.13;;
21820;SDS011;11073;48.586;12.066;2023-03-19T06:41:07;16.90;;;10.82;;
21820;SDS011;11073;48.586;12.066;2023-03-19T06:43:57;21.25;;;13.23;;
21820;SDS011;11073;48.586;12.066;2023-03-19T06:46:46;80.18;;;45.40;;
21820;SDS011;11073;48.586;12.066;2023-03-19T06:49:36;30.33;;;17.58;;
21820;SDS011;11073;48.586;12.066;2023-03-19T06:52:26;22.13;;;14.50;;
21820;SDS011;11073;48.586;12.066;2023-03-19T06:55:15;20.65;;;13.32;;
21820;SDS011;11073;48.586;12.066;2023-03-19T06:58:04;21.05;;;12.68;;
21820;SDS011;11073;48.586;12.066;2023-03-19T07:00:55;19.17;;;12.95;;
21820;SDS011;11073;48.586;12.066;2023-03-19T07:03:44;21.27;;;13.75;;
21820;SDS011;11073;48.586;12.066;2023-03-19T07:06:33;37.05;;;25.42;;
21820;SDS011;11073;48.586;12.066;2023-03-19T07:09:23;23.67;;;16.40;;
21820;SDS011;11073;48.586;12.066;2023-03-19T07:12:13;23.45;;;14.77;;
21820;SDS011;11073;48.586;12.066;2023-03-19T07:15:03;22.40;;;14.38;;
21820;SDS011;11073;48.586;12.066;2023-03-19T07:17:54;19.67;;;12.82;;
21820;SDS011;11073;48.586;12.066;2023-03-19T07:20:43;17.40;;;12.15;;
21820;SDS011;11073;48.586;12.066;2023-03-19T07:23:33;19.02;;;13.18;;
21820;SDS011;11073;48.586;12.066;2023-03-19T07:26:23;19.00;;;13.13;;
21820;SDS011;11073;48.586;12.066;2023-03-19T07:29:13;20.63;;;13.00;;
21820;SDS011;11073;48.586;12.066;2023-03-19T07:32:02;19.45;;;12.55;;
21820;SDS011;11073;48.586;12.066;2023-03-19T07:34:53;22.20;;;13.55;;
21820;SDS011;11073;48.586;12.066;2023-03-19T07:37:41;17.83;;;12.75;;
21820;SDS011;11073;48.586;12.066;2023-03-19T07:40:31;20.92;;;13.75;;
21820;SDS011;11073;48.586;12.066;2023-03-19T07:43:20;22.77;;;14.70;;
21820;SDS011;11073;48.586;12.066;2023-03-19T07:46:09;20.08;;;14.27;;
21820;SDS011;11073;48.586;12.066;2023-03-19T07:48:59;21.83;;;14.27;;
21820;SDS011;11073;48.586;12.066;2023-03-19T07:51:49;20.63;;;14.30;;
21820;SDS011;11073;48.586;12.066;2023-03-19T07:54:38;18.95;;;13.13;;
21820;SDS011;11073;48.586;12.066;2023-03-19T07:57:28;19.55;;;13.48;;
21820;SDS011;11073;48.586;12.066;2023-03-19T08:00:17;24.95;;;16.33;;
21820;SDS011;11073;48.586;12.066;2023-03-19T08:03:06;26.77;;;14.60;;
21820;SDS011;11073;48.586;12.066;2023-03-19T08:05:56;20.30;;;13.65;;
21820;SDS011;11073;48.586;12.066;2023-03-19T08:08:46;20.33;;;13.35;;
21820;SDS011;11073;48.586;12.066;2023-03-19T08:11:35;20.05;;;13.98;;
21820;SDS011;11073;48.586;12.066;2023-03-19T08:14:24;18.08;;;13.48;;
21820;SDS011;11073;48.586;12.066;2023-03-19T08:17:13;19.02;;;13.82;;
21820;SDS011;11073;48.586;12.066;2023-03-19T08:20:04;53.55;;;31.55;;
21820;SDS011;11073;48.586;12.066;2023-03-19T08:22:54;37.13;;;22.48;;
21820;SDS011;11073;48.586;12.066;2023-03-19T08:25:45;26.05;;;16.45;;
21820;SDS011;11073;48.586;12.066;2023-03-19T08:28:34;20.90;;;13.68;;
21820;SDS011;11073;48.586;12.066;2023-03-19T08:31:23;20.42;;;13.82;;
21820;SDS011;11073;48.586;12.066;2023-03-19T08:34:12;19.02;;;14.48;;
21820;SDS011;11073;48.586;12.066;2023-03-19T08:37:01;15.30;;;10.48;;
21820;SDS011;11073;48.586;12.066;2023-03-19T08:39:51;12.60;;;9.57;;
21820;SDS011;11073;48.586;12.066;2023-03-19T08:42:42;12.68;;;8.27;;
21820;SDS011;11073;48.586;12.066;2023-03-19T08:45:32;16.55;;;9.43;;
21820;SDS011;11073;48.586;12.066;2023-03-19T08:48:21;14.10;;;9.00;;
21820;SDS011;11073;48.586;12.066;2023-03-19T08:51:11;14.48;;;8.60;;
21820;SDS011;11073;48.586;12.066;2023-03-19T08:53:59;13.27;;;6.97;;
21820;SDS011;11073;48.586;12.066;2023-03-19T08:56:48;10.73;;;6.60;;
21820;SDS011;11073;48.586;12.066;2023-03-19T08:59:39;13.10;;;7.00;;
21820;SDS011;11073;48.586;12.066;2023-03-19T09:02:27;7.32;;;6.10;;
21820;SDS011;11073;48.586;12.066;2023-03-19T09:05:16;8.95;;;6.05;;
21820;SDS011;11073;48.586;12.066;2023-03-19T09:08:09;8.35;;;5.82;;
21820;SDS011;11073;48.586;12.066;2023-03-19T09:10:58;8.50;;;6.53;;
21820;SDS011;11073;48.586;12.066;2023-03-19T09:13:48;7.93;;;5.68;;
21820;SDS011;11073;48.586;12.066;2023-03-19T09:16:39;8.48;;;5.55;;
21820;SDS011;11073;48.586;12.066;2023-03-19T09:19:28;6.47;;;5.25;;
21820;SDS011;11073;48.586;12.066;2023-03-19T09:22:17;9.15;;;5.57;;
21820;SDS011;11073;48.586;12.066;2023-03-19T09:25:06;7.55;;;5.55;;
21820;SDS011;11073;48.586;12.066;2023-03-19T09:27:55;8.18;;;4.80;;
21820;SDS011;11073;48.586;12.066;2023-03-19T09:30:44;6.57;;;5.13;;
21820;SDS011;11073;48.586;12.066;2023-03-19T09:33:35;7.50;;;4.88;;
21820;SDS011;11073;48.586;12.066;2023-03-19T09:36:25;7.82;;;4.80;;
21820;SDS011;11073;48.586;12.066;2023-03-19T09:39:14;5.90;;;4.13;;
21820;SDS011;11073;48.586;12.066;2023-03-19T09:42:06;8.63;;;4.80;;
21820;SDS011;11073;48.586;12.066;2023-03-19T09:45:03;6.80;;;3.97;;
21820;SDS011;11073;48.586;12.066;2023-03-19T09:48:00;8.00;;;3.72;;
21820;SDS011;11073;48.586;12.066;2023-03-19T09:50:55;6.50;;;4.22;;
21820;SDS011;11073;48.586;12.066;2023-03-19T09:53:46;6.85;;;4.13;;
21820;SDS011;11073;48.586;12.066;2023-03-19T09:56:41;5.13;;;3.65;;
21820;SDS011;11073;48.586;12.066;2023-03-19T09:59:31;11.80;;;8.35;;
21820;SDS011;11073;48.586;12.066;2023-03-19T10:02:28;8.10;;;5.45;;
21820;SDS011;11073;48.586;12.066;2023-03-19T10:05:30;4.85;;;3.50;;
21820;SDS011;11073;48.586;12.066;2023-03-19T10:08:35;4.85;;;3.20;;
21820;SDS011;11073;48.586;12.066;2023-03-19T10:11:39;5.95;;;3.30;;
21820;SDS011;11073;48.586;12.066;2023-03-19T10:14:47;5.85;;;3.17;;
21820;SDS011;11073;48.586;12.066;2023-03-19T10:17:53;5.03;;;3.20;;
21820;SDS011;11073;48.586;12.066;2023-03-19T10:20:48;3.88;;;2.90;;
21820;SDS011;11073;48.586;12.066;2023-03-19T10:23:44;4.45;;;2.92;;
21820;SDS011;11073;48.586;12.066;2023-03-19T10:26:36;5.53;;;3.33;;
21820;SDS011;11073;48.586;12.066;2023-03-19T10:29:25;4.97;;;3.00;;
21820;SDS011;11073;48.586;12.066;2023-03-19T10:32:16;5.07;;;2.95;;
21820;SDS011;11073;48.586;12.066;2023-03-19T10:35:08;3.92;;;2.90;;
21820;SDS011;11073;48.586;12.066;2023-03-19T10:38:11;5.80;;;3.15;;
21820;SDS011;11073;48.586;12.066;2023-03-19T10:41:16;3.72;;;3.00;;
21820;SDS011;11073;48.586;12.066;2023-03-19T10:44:13;4.18;;;2.78;;
21820;SDS011;11073;48.586;12.066;2023-03-19T10:47:12;4.70;;;3.10;;
21820;SDS011;11073;48.586;12.066;2023-03-19T10:50:04;4.18;;;2.90;;
21820;SDS011;11073;48.586;12.066;2023-03-19T10:52:58;4.32;;;2.65;;
21820;SDS011;11073;48.586;12.066;2023-03-19T10:55:54;5.03;;;3.00;;
21820;SDS011;11073;48.586;12.066;2023-03-19T10:58:55;4.13;;;3.20;;
21820;SDS011;11073;48.586;12.066;2023-03-19T11:01:46;6.50;;;2.88;;
21820;SDS011;11073;48.586;12.066;2023-03-19T11:04:35;5.20;;;3.35;;
21820;SDS011;11073;48.586;12.066;2023-03-19T11:07:25;5.00;;;2.63;;
21820;SDS011;11073;48.586;12.066;2023-03-19T11:10:15;5.93;;;2.75;;
21820;SDS011;11073;48.586;12.066;2023-03-19T11:13:16;3.80;;;3.08;;
21820;SDS011;11073;48.586;12.066;2023-03-19T11:16:12;3.65;;;2.88;;
21820;SDS011;11073;48.586;12.066;2023-03-19T11:19:00;3.88;;;2.70;;
21820;SDS011;11073;48.586;12.066;2023-03-19T11:21:57;6.60;;;2.72;;
21820;SDS011;11073;48.586;12.066;2023-03-19T11:24:58;4.45;;;2.80;;
21820;SDS011;11073;48.586;12.066;2023-03-19T11:27:56;3.30;;;2.30;;
21820;SDS011;11073;48.586;12.066;2023-03-19T11:30:49;4.32;;;2.53;;
21820;SDS011;11073;48.586;12.066;2023-03-19T11:33:49;5.07;;;2.65;;
21820;SDS011;11073;48.586;12.066;2023-03-19T11:36:55;5.25;;;2.78;;
21820;SDS011;11073;48.586;12.066;2023-03-19T11:39:57;4.03;;;2.55;;
21820;SDS011;11073;48.586;12.066;2023-03-19T11:42:55;4.00;;;2.90;;
21820;SDS011;11073;48.586;12.066;2023-03-19T11:45:56;3.53;;;2.85;;
21820;SDS011;11073;48.586;12.066;2023-03-19T11:52:12;3.97;;;2.30;;
21820;SDS011;11073;48.586;12.066;2023-03-19T11:55:12;3.83;;;2.10;;
21820;SDS011;11073;48.586;12.066;2023-03-19T11:58:20;2.38;;;2.15;;
21820;SDS011;11073;48.586;12.066;2023-03-19T12:01:32;4.78;;;2.30;;
21820;SDS011;11073;48.586;12.066;2023-03-19T12:04:47;3.38;;;2.10;;
21820;SDS011;11073;48.586;12.066;2023-03-19T12:07:55;4.22;;;2.08;;
21820;SDS011;11073;48.586;12.066;2023-03-19T12:10:58;5.38;;;2.50;;
21820;SDS011;11073;48.586;12.066;2023-03-19T12:14:03;3.95;;;2.60;;
21820;SDS011;11073;48.586;12.066;2023-03-19T12:17:14;4.45;;;2.92;;
21820;SDS011;11073;48.586;12.066;2023-03-19T12:20:16;2.97;;;2.38;;
21820;SDS011;11073;48.586;12.066;2023-03-19T12:23:16;4.25;;;2.95;;
21820;SDS011;11073;48.586;12.066;2023-03-19T12:26:16;3.00;;;2.20;;
21820;SDS011;11073;48.586;12.066;2023-03-19T12:29:13;5.18;;;3.00;;
21820;SDS011;11073;48.586;12.066;2023-03-19T12:32:12;4.45;;;2.78;;
21820;SDS011;11073;48.586;12.066;2023-03-19T12:35:09;4.03;;;2.47;;
21820;SDS011;11073;48.586;12.066;2023-03-19T12:38:05;3.58;;;2.25;;
21820;SDS011;11073;48.586;12.066;2023-03-19T12:40:59;3.17;;;2.22;;
21820;SDS011;11073;48.586;12.066;2023-03-19T12:43:55;5.95;;;2.80;;
21820;SDS011;11073;48.586;12.066;2023-03-19T12:46:49;5.13;;;3.22;;
21820;SDS011;11073;48.586;12.066;2023-03-19T12:49:45;4.47;;;2.55;;
21820;SDS011;11073;48.586;12.066;2023-03-19T12:52:39;3.92;;;2.67;;
21820;SDS011;11073;48.586;12.066;2023-03-19T12:55:33;5.00;;;2.90;;
21820;SDS011;11073;48.586;12.066;2023-03-19T12:58:32;3.15;;;2.67;;
21820;SDS011;11073;48.586;12.066;2023-03-19T13:01:30;4.65;;;2.75;;
21820;SDS011;11073;48.586;12.066;2023-03-19T13:04:24;6.00;;;3.33;;
21820;SDS011;11073;48.586;12.066;2023-03-19T13:07:18;3.75;;;2.60;;
21820;SDS011;11073;48.586;12.066;2023-03-19T13:10:11;5.10;;;2.45;;
21820;SDS011;11073;48.586;12.066;2023-03-19T13:13:09;4.32;;;2.28;;
21820;SDS011;11073;48.586;12.066;2023-03-19T13:16:17;3.40;;;2.30;;
21820;SDS011;11073;48.586;12.066;2023-03-19T13:19:19;3.72;;;2.60;;
21820;SDS011;11073;48.586;12.066;2023-03-19T13:22:13;4.80;;;2.42;;
21820;SDS011;11073;48.586;12.066;2023-03-19T13:25:08;4.97;;;2.55;;
21820;SDS011;11073;48.586;12.066;2023-03-19T13:28:08;4.00;;;2.38;;
21820;SDS011;11073;48.586;12.066;2023-03-19T13:30:58;4.68;;;2.53;;
21820;SDS011;11073;48.586;12.066;2023-03-19T13:33:50;3.28;;;2.20;;
21820;SDS011;11073;48.586;12.066;2023-03-19T13:36:43;4.35;;;2.17;;
21820;SDS011;11073;48.586;12.066;2023-03-19T13:39:34;4.85;;;2.80;;
21820;SDS011;11073;48.586;12.066;2023-03-19T13:42:36;5.20;;;2.38;;
21820;SDS011;11073;48.586;12.066;2023-03-19T13:45:33;3.63;;;2.08;;
21820;SDS011;11073;48.586;12.066;2023-03-19T13:48:36;4.65;;;2.90;;
21820;SDS011;11073;48.586;12.066;2023-03-19T13:51:27;6.65;;;3.55;;
21820;SDS011;11073;48.586;12.066;2023-03-19T13:54:17;4.55;;;2.50;;
21820;SDS011;11073;48.586;12.066;2023-03-19T13:57:16;3.33;;;2.30;;
21820;SDS011;11073;48.586;12.066;2023-03-19T14:03:51;5.30;;;2.78;;
21820;SDS011;11073;48.586;12.066;2023-03-19T14:06:43;3.90;;;2.47;;
21820;SDS011;11073;48.586;12.066;2023-03-19T14:09:37;4.25;;;2.70;;
21820;SDS011;11073;48.586;12.066;2023-03-19T14:12:29;4.22;;;2.47;;
21820;SDS011;11073;48.586;12.066;2023-03-19T14:15:20;2.65;;;2.25;;
21820;SDS011;11073;48.586;12.066;2023-03-19T14:18:14;2.80;;;2.10;;
21820;SDS011;11073;48.586;12.066;2023-03-19T14:21:08;3.83;;;2.50;;
21820;SDS011;11073;48.586;12.066;2023-03-19T14:27:35;5.43;;;2.00;;
21820;SDS011;11073;48.586;12.066;2023-03-19T14:30:26;5.07;;;3.05;;
21820;SDS011;11073;48.586;12.066;2023-03-19T14:33:24;4.43;;;2.40;;
21820;SDS011;11073;48.586;12.066;2023-03-19T14:36:17;6.43;;;2.80;;
21820;SDS011;11073;48.586;12.066;2023-03-19T14:39:11;4.00;;;2.60;;
21820;SDS011;11073;48.586;12.066;2023-03-19T14:42:12;5.07;;;2.63;;
21820;SDS011;11073;48.586;12.066;2023-03-19T14:45:07;3.47;;;2.45;;
21820;SDS011;11073;48.586;12.066;2023-03-19T14:48:31;3.97;;;2.30;;
21820;SDS011;11073;48.586;12.066;2023-03-19T14:51:47;3.38;;;2.42;;
21820;SDS011;11073;48.586;12.066;2023-03-19T14:54:41;7.47;;;2.30;;
21820;SDS011;11073;48.586;12.066;2023-03-19T14:57:35;4.10;;;2.90;;
21820;SDS011;11073;48.586;12.066;2023-03-19T15:00:24;3.00;;;2.50;;
21820;SDS011;11073;48.586;12.066;2023-03-19T15:03:18;3.55;;;2.50;;
21820;SDS011;11073;48.586;12.066;2023-03-19T15:06:11;5.00;;;3.00;;
21820;SDS011;11073;48.586;12.066;2023-03-19T15:09:05;8.02;;;3.38;;
21820;SDS011;11073;48.586;12.066;2023-03-19T15:12:13;2.85;;;2.30;;
21820;SDS011;11073;48.586;12.066;2023-03-19T15:15:16;3.70;;;2.35;;
21820;SDS011;11073;48.586;12.066;2023-03-19T15:18:12;2.88;;;2.20;;
21820;SDS011;11073;48.586;12.066;2023-03-19T15:21:03;3.72;;;2.20;;
21820;SDS011;11073;48.586;12.066;2023-03-19T15:23:54;2.85;;;1.80;;
21820;SDS011;11073;48.586;12.066;2023-03-19T15:26:43;4.18;;;1.63;;
21820;SDS011;11073;48.586;12.066;2023-03-19T15:29:33;3.72;;;1.95;;
21820;SDS011;11073;48.586;12.066;2023-03-19T15:32:31;2.38;;;2.15;;
21820;SDS011;11073;48.586;12.066;2023-03-19T15:35:41;2.60;;;1.80;;
21820;SDS011;11073;48.586;12.066;2023-03-19T15:38:31;4.05;;;1.73;;
21820;SDS011;11073;48.586;12.066;2023-03-19T15:41:25;3.28;;;2.10;;
21820;SDS011;11073;48.586;12.066;2023-03-19T15:44:20;3.80;;;1.75;;
21820;SDS011;11073;48.586;12.066;2023-03-19T15:47:14;2.63;;;2.05;;
21820;SDS011;11073;48.586;12.066;2023-03-19T15:50:08;3.13;;;1.50;;
21820;SDS011;11073;48.586;12.066;2023-03-19T15:53:03;3.75;;;1.92;;
21820;SDS011;11073;48.586;12.066;2023-03-19T15:55:56;8.00;;;3.35;;
21820;SDS011;11073;48.586;12.066;2023-03-19T15:58:47;3.38;;;1.83;;
21820;SDS011;11073;48.586;12.066;2023-03-19T16:01:39;4.22;;;1.80;;
21820;SDS011;11073;48.586;12.066;2023-03-19T16:04:28;3.17;;;2.00;;
21820;SDS011;11073;48.586;12.066;2023-03-19T16:07:40;4.00;;;1.80;;
21820;SDS011;11073;48.586;12.066;2023-03-19T16:10:31;3.10;;;1.88;;
21820;SDS011;11073;48.586;12.066;2023-03-19T16:13:24;2.25;;;1.42;;
21820;SDS011;11073;48.586;12.066;2023-03-19T16:16:18;3.05;;;1.73;;
21820;SDS011;11073;48.586;12.066;2023-03-19T16:22:19;3.15;;;1.65;;
21820;SDS011;11073;48.586;12.066;2023-03-19T16:25:11;3.22;;;1.63;;
21820;SDS011;11073;48.586;12.066;2023-03-19T16:28:05;1.73;;;1.42;;
21820;SDS011;11073;48.586;12.066;2023-03-19T16:31:02;3.78;;;1.73;;
21820;SDS011;11073;48.586;12.066;2023-03-19T16:33:53;4.78;;;2.15;;
21820;SDS011;11073;48.586;12.066;2023-03-19T16:36:44;3.35;;;1.90;;
21820;SDS011;11073;48.586;12.066;2023-03-19T16:39:34;2.35;;;1.60;;
21820;SDS011;11073;48.586;12.066;2023-03-19T16:42:28;4.70;;;1.50;;
21820;SDS011;11073;48.586;12.066;2023-03-19T16:45:25;4.97;;;1.50;;
21820;SDS011;11073;48.586;12.066;2023-03-19T16:48:15;3.95;;;1.60;;
21820;SDS011;11073;48.586;12.066;2023-03-19T16:51:07;1.77;;;1.50;;
21820;SDS011;11073;48.586;12.066;2023-03-19T16:54:02;3.65;;;1.40;;
21820;SDS011;11073;48.586;12.066;2023-03-19T16:56:52;3.17;;;1.73;;
21820;SDS011;11073;48.586;12.066;2023-03-19T16:59:41;2.97;;;1.40;;
21820;SDS011;11073;48.586;12.066;2023-03-19T17:02:31;3.75;;;1.52;;
21820;SDS011;11073;48.586;12.066;2023-03-19T17:05:20;2.67;;;1.83;;
21820;SDS011;11073;48.586;12.066;2023-03-19T17:08:10;2.88;;;1.83;;
21820;SDS011;11073;48.586;12.066;2023-03-19T17:11:00;3.08;;;2.00;;
21820;SDS011;11073;48.586;12.066;2023-03-19T17:13:49;3.15;;;2.10;;